sensor_id;sensor_type;location;lat;lon;timestamp;P1;durP1;ratioP1;P2;durP2;ratioP2
8755;SDS011;4414;42.670;23.228;2024-03-08T00:02:11;5.78;;;1.95;;
8755;SDS011;4414;42.670;23.228;2024-03-08T00:04:38;2.88;;;1.73;;
8755;SDS011;4414;42.670;23.228;2024-03-08T00:07:04;3.88;;;1.48;;
8755;SDS011;4414;42.670;23.228;2024-03-08T00:09:29;2.00;;;1.27;;
8755;SDS011;4414;42.670;23.228;2024-03-08T00:11:56;2.35;;;1.65;;
8755;SDS011;4414;42.670;23.228;2024-03-08T00:14:21;4.03;;;2.13;;
8755;SDS011;4414;42.670;23.228;2024-03-08T00:16:47;2.53;;;1.65;;
8755;SDS011;4414;42.670;23.228;2024-03-08T00:19:12;3.60;;;2.45;;
8755;SDS011;4414;42.670;23.228;2024-03-08T00:21:37;5.28;;;3.58;;
8755;SDS011;4414;42.670;23.228;2024-03-08T00:24:03;12.88;;;6.32;;
8755;SDS011;4414;42.670;23.228;2024-03-08T00:26:29;29.70;;;13.00;;
8755;SDS011;4414;42.670;23.228;2024-03-08T00:28:54;29.15;;;12.85;;
8755;SDS011;4414;42.670;23.228;2024-03-08T00:31:20;8.63;;;4.20;;
8755;SDS011;4414;42.670;23.228;2024-03-08T00:33:45;7.88;;;3.63;;
8755;SDS011;4414;42.670;23.228;2024-03-08T00:36:11;5.55;;;2.30;;
8755;SDS011;4414;42.670;23.228;2024-03-08T00:38:37;4.72;;;2.70;;
8755;SDS011;4414;42.670;23.228;2024-03-08T00:41:02;3.28;;;1.95;;
8755;SDS011;4414;42.670;23.228;2024-03-08T00:43:28;4.85;;;2.00;;
8755;SDS011;4414;42.670;23.228;2024-03-08T00:45:55;4.07;;;2.33;;
8755;SDS011;4414;42.670;23.228;2024-03-08T00:48:21;4.90;;;2.20;;
8755;SDS011;4414;42.670;23.228;2024-03-08T00:50:46;4.13;;;1.73;;
8755;SDS011;4414;42.670;23.228;2024-03-08T00:53:12;4.68;;;2.55;;
8755;SDS011;4414;42.670;23.228;2024-03-08T00:55:37;3.25;;;2.22;;
8755;SDS011;4414;42.670;23.228;2024-03-08T00:58:03;3.92;;;1.98;;
8755;SDS011;4414;42.670;23.228;2024-03-08T01:00:29;3.25;;;1.45;;
8755;SDS011;4414;42.670;23.228;2024-03-08T01:02:55;2.97;;;1.50;;
8755;SDS011;4414;42.670;23.228;2024-03-08T01:05:22;2.42;;;1.42;;
8755;SDS011;4414;42.670;23.228;2024-03-08T01:07:50;1.92;;;1.10;;
8755;SDS011;4414;42.670;23.228;2024-03-08T01:10:16;2.85;;;1.80;;
8755;SDS011;4414;42.670;23.228;2024-03-08T01:12:42;3.65;;;1.73;;
8755;SDS011;4414;42.670;23.228;2024-03-08T01:15:10;1.92;;;1.00;;
8755;SDS011;4414;42.670;23.228;2024-03-08T01:17:35;1.77;;;0.93;;
8755;SDS011;4414;42.670;23.228;2024-03-08T01:20:02;3.03;;;1.75;;
8755;SDS011;4414;42.670;23.228;2024-03-08T01:22:28;1.60;;;1.20;;
8755;SDS011;4414;42.670;23.228;2024-03-08T01:24:55;2.53;;;1.67;;
8755;SDS011;4414;42.670;23.228;2024-03-08T01:27:20;2.95;;;1.60;;
8755;SDS011;4414;42.670;23.228;2024-03-08T01:29:46;3.33;;;1.90;;
8755;SDS011;4414;42.670;23.228;2024-03-08T01:32:11;3.28;;;1.70;;
8755;SDS011;4414;42.670;23.228;2024-03-08T01:34:37;2.47;;;1.52;;
8755;SDS011;4414;42.670;23.228;2024-03-08T01:37:02;3.60;;;2.00;;
8755;SDS011;4414;42.670;23.228;2024-03-08T01:39:28;2.92;;;1.98;;
8755;SDS011;4414;42.670;23.228;2024-03-08T01:41:53;4.25;;;1.50;;
8755;SDS011;4414;42.670;23.228;2024-03-08T01:44:19;4.45;;;1.98;;
8755;SDS011;4414;42.670;23.228;2024-03-08T01:46:45;4.10;;;1.50;;
8755;SDS011;4414;42.670;23.228;2024-03-08T01:49:11;2.78;;;1.17;;
8755;SDS011;4414;42.670;23.228;2024-03-08T01:51:38;3.17;;;2.20;;
8755;SDS011;4414;42.670;23.228;2024-03-08T01:54:05;1.92;;;1.45;;
8755;SDS011;4414;42.670;23.228;2024-03-08T01:56:31;2.72;;;1.60;;
8755;SDS011;4414;42.670;23.228;2024-03-08T01:58:57;3.20;;;1.75;;
8755;SDS011;4414;42.670;23.228;2024-03-08T02:01:24;3.35;;;1.60;;
8755;SDS011;4414;42.670;23.228;2024-03-08T02:03:50;2.90;;;1.48;;
8755;SDS011;4414;42.670;23.228;2024-03-08T02:06:16;3.05;;;1.85;;
8755;SDS011;4414;42.670;23.228;2024-03-08T02:08:45;3.83;;;1.58;;
8755;SDS011;4414;42.670;23.228;2024-03-08T02:11:11;3.83;;;1.88;;
8755;SDS011;4414;42.670;23.228;2024-03-08T02:13:37;2.42;;;1.60;;
8755;SDS011;4414;42.670;23.228;2024-03-08T02:16:03;3.72;;;2.03;;
8755;SDS011;4414;42.670;23.228;2024-03-08T02:18:30;4.70;;;1.75;;
8755;SDS011;4414;42.670;23.228;2024-03-08T02:20:58;2.28;;;1.55;;
8755;SDS011;4414;42.670;23.228;2024-03-08T02:23:24;2.30;;;1.15;;
8755;SDS011;4414;42.670;23.228;2024-03-08T02:25:51;3.65;;;1.85;;
8755;SDS011;4414;42.670;23.228;2024-03-08T02:28:16;3.05;;;1.90;;
8755;SDS011;4414;42.670;23.228;2024-03-08T02:30:46;1.77;;;1.23;;
8755;SDS011;4414;42.670;23.228;2024-03-08T02:33:13;5.40;;;2.35;;
8755;SDS011;4414;42.670;23.228;2024-03-08T02:35:41;2.67;;;1.80;;
8755;SDS011;4414;42.670;23.228;2024-03-08T02:38:10;2.33;;;1.17;;
8755;SDS011;4414;42.670;23.228;2024-03-08T02:40:36;3.30;;;1.70;;
8755;SDS011;4414;42.670;23.228;2024-03-08T02:43:02;2.90;;;1.58;;
8755;SDS011;4414;42.670;23.228;2024-03-08T02:45:30;3.05;;;1.42;;
8755;SDS011;4414;42.670;23.228;2024-03-08T02:47:55;2.88;;;1.63;;
8755;SDS011;4414;42.670;23.228;2024-03-08T02:50:21;3.50;;;1.35;;
8755;SDS011;4414;42.670;23.228;2024-03-08T02:52:47;3.70;;;1.70;;
8755;SDS011;4414;42.670;23.228;2024-03-08T02:55:13;3.38;;;1.50;;
8755;SDS011;4414;42.670;23.228;2024-03-08T02:57:41;2.10;;;1.30;;
8755;SDS011;4414;42.670;23.228;2024-03-08T03:00:08;3.72;;;2.00;;
8755;SDS011;4414;42.670;23.228;2024-03-08T03:02:34;3.80;;;1.77;;
8755;SDS011;4414;42.670;23.228;2024-03-08T03:05:00;3.38;;;2.00;;
8755;SDS011;4414;42.670;23.228;2024-03-08T03:07:30;4.05;;;2.30;;
8755;SDS011;4414;42.670;23.228;2024-03-08T03:09:56;5.28;;;2.03;;
8755;SDS011;4414;42.670;23.228;2024-03-08T03:12:21;5.53;;;2.67;;
8755;SDS011;4414;42.670;23.228;2024-03-08T03:14:47;4.65;;;2.33;;
8755;SDS011;4414;42.670;23.228;2024-03-08T03:17:13;7.93;;;3.55;;
8755;SDS011;4414;42.670;23.228;2024-03-08T03:19:40;5.50;;;3.08;;
8755;SDS011;4414;42.670;23.228;2024-03-08T03:22:07;10.07;;;3.33;;
8755;SDS011;4414;42.670;23.228;2024-03-08T03:24:34;6.20;;;3.05;;
8755;SDS011;4414;42.670;23.228;2024-03-08T03:27:03;4.25;;;2.30;;
8755;SDS011;4414;42.670;23.228;2024-03-08T03:29:36;6.47;;;2.08;;
8755;SDS011;4414;42.670;23.228;2024-03-08T03:32:05;6.05;;;2.10;;
8755;SDS011;4414;42.670;23.228;2024-03-08T03:34:32;5.72;;;2.38;;
8755;SDS011;4414;42.670;23.228;2024-03-08T03:37:00;4.22;;;2.05;;
8755;SDS011;4414;42.670;23.228;2024-03-08T03:39:27;3.92;;;1.90;;
8755;SDS011;4414;42.670;23.228;2024-03-08T03:41:56;2.63;;;1.27;;
8755;SDS011;4414;42.670;23.228;2024-03-08T03:44:22;2.78;;;1.75;;
8755;SDS011;4414;42.670;23.228;2024-03-08T03:46:48;3.58;;;1.25;;
8755;SDS011;4414;42.670;23.228;2024-03-08T03:49:15;5.57;;;1.95;;
8755;SDS011;4414;42.670;23.228;2024-03-08T03:51:42;2.03;;;1.40;;
8755;SDS011;4414;42.670;23.228;2024-03-08T03:54:07;3.40;;;2.17;;
8755;SDS011;4414;42.670;23.228;2024-03-08T03:56:33;6.32;;;2.83;;
8755;SDS011;4414;42.670;23.228;2024-03-08T03:58:58;7.18;;;3.10;;
8755;SDS011;4414;42.670;23.228;2024-03-08T04:01:23;3.45;;;1.95;;
8755;SDS011;4414;42.670;23.228;2024-03-08T04:03:49;7.30;;;3.05;;
8755;SDS011;4414;42.670;23.228;2024-03-08T04:06:14;9.13;;;3.10;;
8755;SDS011;4414;42.670;23.228;2024-03-08T04:08:40;6.50;;;3.10;;
8755;SDS011;4414;42.670;23.228;2024-03-08T04:11:06;3.15;;;1.67;;
8755;SDS011;4414;42.670;23.228;2024-03-08T04:13:33;6.32;;;2.60;;
8755;SDS011;4414;42.670;23.228;2024-03-08T04:15:59;10.95;;;5.53;;
8755;SDS011;4414;42.670;23.228;2024-03-08T04:18:25;8.30;;;3.67;;
8755;SDS011;4414;42.670;23.228;2024-03-08T04:20:51;8.77;;;3.90;;
8755;SDS011;4414;42.670;23.228;2024-03-08T04:23:16;5.55;;;2.20;;
8755;SDS011;4414;42.670;23.228;2024-03-08T04:25:43;2.35;;;0.95;;
8755;SDS011;4414;42.670;23.228;2024-03-08T04:28:08;3.80;;;1.42;;
8755;SDS011;4414;42.670;23.228;2024-03-08T04:30:40;7.05;;;2.92;;
8755;SDS011;4414;42.670;23.228;2024-03-08T04:33:06;3.45;;;1.73;;
8755;SDS011;4414;42.670;23.228;2024-03-08T04:35:32;2.17;;;1.40;;
8755;SDS011;4414;42.670;23.228;2024-03-08T04:37:58;6.78;;;2.72;;
8755;SDS011;4414;42.670;23.228;2024-03-08T04:40:23;3.75;;;1.77;;
8755;SDS011;4414;42.670;23.228;2024-03-08T04:42:49;3.45;;;1.88;;
8755;SDS011;4414;42.670;23.228;2024-03-08T04:45:16;2.33;;;0.90;;
8755;SDS011;4414;42.670;23.228;2024-03-08T04:47:41;4.72;;;1.20;;
8755;SDS011;4414;42.670;23.228;2024-03-08T04:50:07;2.92;;;1.08;;
8755;SDS011;4414;42.670;23.228;2024-03-08T04:52:34;1.90;;;1.42;;
8755;SDS011;4414;42.670;23.228;2024-03-08T04:54:59;2.50;;;1.50;;
8755;SDS011;4414;42.670;23.228;2024-03-08T04:57:25;1.90;;;1.13;;
8755;SDS011;4414;42.670;23.228;2024-03-08T04:59:50;4.00;;;1.77;;
8755;SDS011;4414;42.670;23.228;2024-03-08T05:02:16;2.40;;;1.23;;
8755;SDS011;4414;42.670;23.228;2024-03-08T05:04:42;2.22;;;1.30;;
8755;SDS011;4414;42.670;23.228;2024-03-08T05:07:08;5.13;;;1.75;;
8755;SDS011;4414;42.670;23.228;2024-03-08T05:09:33;2.80;;;1.45;;
8755;SDS011;4414;42.670;23.228;2024-03-08T05:12:01;3.80;;;1.70;;
8755;SDS011;4414;42.670;23.228;2024-03-08T05:14:26;2.30;;;1.48;;
8755;SDS011;4414;42.670;23.228;2024-03-08T05:16:52;2.22;;;1.27;;
8755;SDS011;4414;42.670;23.228;2024-03-08T05:19:18;4.10;;;1.80;;
8755;SDS011;4414;42.670;23.228;2024-03-08T05:21:45;2.42;;;1.25;;
8755;SDS011;4414;42.670;23.228;2024-03-08T05:24:13;2.65;;;1.50;;
8755;SDS011;4414;42.670;23.228;2024-03-08T05:26:42;3.80;;;2.13;;
8755;SDS011;4414;42.670;23.228;2024-03-08T05:29:10;2.47;;;1.58;;
8755;SDS011;4414;42.670;23.228;2024-03-08T05:31:43;5.20;;;2.10;;
8755;SDS011;4414;42.670;23.228;2024-03-08T05:34:13;2.85;;;1.98;;
8755;SDS011;4414;42.670;23.228;2024-03-08T05:36:40;4.25;;;2.08;;
8755;SDS011;4414;42.670;23.228;2024-03-08T05:39:08;3.50;;;2.47;;
8755;SDS011;4414;42.670;23.228;2024-03-08T05:41:33;3.50;;;2.13;;
8755;SDS011;4414;42.670;23.228;2024-03-08T05:43:59;5.18;;;2.78;;
8755;SDS011;4414;42.670;23.228;2024-03-08T05:46:24;3.95;;;2.33;;
8755;SDS011;4414;42.670;23.228;2024-03-08T05:48:50;4.40;;;2.65;;
8755;SDS011;4414;42.670;23.228;2024-03-08T05:51:16;4.68;;;2.97;;
8755;SDS011;4414;42.670;23.228;2024-03-08T05:53:41;6.28;;;2.92;;
8755;SDS011;4414;42.670;23.228;2024-03-08T05:56:06;7.95;;;3.88;;
8755;SDS011;4414;42.670;23.228;2024-03-08T05:58:34;5.90;;;2.92;;
8755;SDS011;4414;42.670;23.228;2024-03-08T06:00:59;3.90;;;2.83;;
8755;SDS011;4414;42.670;23.228;2024-03-08T06:03:25;7.22;;;4.18;;
8755;SDS011;4414;42.670;23.228;2024-03-08T06:05:51;6.15;;;3.40;;
8755;SDS011;4414;42.670;23.228;2024-03-08T06:08:16;8.75;;;4.05;;
8755;SDS011;4414;42.670;23.228;2024-03-08T06:10:41;10.13;;;4.50;;
8755;SDS011;4414;42.670;23.228;2024-03-08T06:13:07;10.48;;;4.40;;
8755;SDS011;4414;42.670;23.228;2024-03-08T06:15:32;6.63;;;3.58;;
8755;SDS011;4414;42.670;23.228;2024-03-08T06:17:59;7.55;;;4.25;;
8755;SDS011;4414;42.670;23.228;2024-03-08T06:20:25;6.97;;;3.42;;
8755;SDS011;4414;42.670;23.228;2024-03-08T06:22:51;6.55;;;3.60;;
8755;SDS011;4414;42.670;23.228;2024-03-08T06:25:17;12.27;;;3.45;;
8755;SDS011;4414;42.670;23.228;2024-03-08T06:27:42;6.35;;;3.75;;
8755;SDS011;4414;42.670;23.228;2024-03-08T06:30:09;6.72;;;3.75;;
8755;SDS011;4414;42.670;23.228;2024-03-08T06:32:38;10.02;;;3.92;;
8755;SDS011;4414;42.670;23.228;2024-03-08T06:35:04;7.20;;;3.47;;
8755;SDS011;4414;42.670;23.228;2024-03-08T06:37:31;5.38;;;3.30;;
8755;SDS011;4414;42.670;23.228;2024-03-08T06:39:57;6.85;;;3.95;;
8755;SDS011;4414;42.670;23.228;2024-03-08T06:42:23;8.13;;;3.80;;
8755;SDS011;4414;42.670;23.228;2024-03-08T06:44:48;6.72;;;4.20;;
8755;SDS011;4414;42.670;23.228;2024-03-08T06:47:17;5.85;;;3.38;;
8755;SDS011;4414;42.670;23.228;2024-03-08T06:49:43;6.85;;;4.35;;
8755;SDS011;4414;42.670;23.228;2024-03-08T06:52:09;10.38;;;4.68;;
8755;SDS011;4414;42.670;23.228;2024-03-08T06:54:35;6.75;;;3.90;;
8755;SDS011;4414;42.670;23.228;2024-03-08T06:57:01;9.05;;;4.88;;
8755;SDS011;4414;42.670;23.228;2024-03-08T06:59:28;6.13;;;4.38;;
8755;SDS011;4414;42.670;23.228;2024-03-08T07:01:54;11.75;;;6.28;;
8755;SDS011;4414;42.670;23.228;2024-03-08T07:04:19;13.38;;;6.63;;
8755;SDS011;4414;42.670;23.228;2024-03-08T07:06:46;10.55;;;6.53;;
8755;SDS011;4414;42.670;23.228;2024-03-08T07:09:15;9.27;;;6.55;;
8755;SDS011;4414;42.670;23.228;2024-03-08T07:11:43;7.10;;;4.40;;
8755;SDS011;4414;42.670;23.228;2024-03-08T07:14:08;10.75;;;6.47;;
8755;SDS011;4414;42.670;23.228;2024-03-08T07:16:34;7.32;;;4.60;;
8755;SDS011;4414;42.670;23.228;2024-03-08T07:19:04;5.70;;;4.18;;
8755;SDS011;4414;42.670;23.228;2024-03-08T07:21:30;5.53;;;3.20;;
8755;SDS011;4414;42.670;23.228;2024-03-08T07:23:56;6.90;;;3.90;;
8755;SDS011;4414;42.670;23.228;2024-03-08T07:26:24;9.27;;;4.15;;
8755;SDS011;4414;42.670;23.228;2024-03-08T07:28:50;6.75;;;3.42;;
8755;SDS011;4414;42.670;23.228;2024-03-08T07:31:15;8.52;;;3.90;;
8755;SDS011;4414;42.670;23.228;2024-03-08T07:33:56;6.47;;;4.22;;
8755;SDS011;4414;42.670;23.228;2024-03-08T07:36:23;7.95;;;4.65;;
8755;SDS011;4414;42.670;23.228;2024-03-08T07:38:49;7.50;;;4.55;;
8755;SDS011;4414;42.670;23.228;2024-03-08T07:41:15;7.97;;;3.58;;
8755;SDS011;4414;42.670;23.228;2024-03-08T07:43:41;8.80;;;4.25;;
8755;SDS011;4414;42.670;23.228;2024-03-08T07:46:07;8.27;;;3.70;;
8755;SDS011;4414;42.670;23.228;2024-03-08T07:48:35;8.50;;;4.38;;
8755;SDS011;4414;42.670;23.228;2024-03-08T07:51:01;10.07;;;4.13;;
8755;SDS011;4414;42.670;23.228;2024-03-08T07:53:28;9.60;;;4.20;;
8755;SDS011;4414;42.670;23.228;2024-03-08T07:55:53;9.55;;;5.43;;
8755;SDS011;4414;42.670;23.228;2024-03-08T07:58:19;12.30;;;6.70;;
8755;SDS011;4414;42.670;23.228;2024-03-08T08:00:44;8.25;;;6.03;;
8755;SDS011;4414;42.670;23.228;2024-03-08T08:03:10;14.70;;;7.03;;
8755;SDS011;4414;42.670;23.228;2024-03-08T08:05:35;11.38;;;6.82;;
8755;SDS011;4414;42.670;23.228;2024-03-08T08:08:03;23.77;;;10.50;;
8755;SDS011;4414;42.670;23.228;2024-03-08T08:10:32;16.92;;;8.73;;
8755;SDS011;4414;42.670;23.228;2024-03-08T08:12:58;12.18;;;6.95;;
8755;SDS011;4414;42.670;23.228;2024-03-08T08:15:23;10.93;;;6.03;;
8755;SDS011;4414;42.670;23.228;2024-03-08T08:17:49;15.15;;;7.72;;
8755;SDS011;4414;42.670;23.228;2024-03-08T08:20:15;11.18;;;6.60;;
8755;SDS011;4414;42.670;23.228;2024-03-08T08:22:42;25.92;;;8.25;;
8755;SDS011;4414;42.670;23.228;2024-03-08T08:25:10;12.40;;;6.53;;
8755;SDS011;4414;42.670;23.228;2024-03-08T08:27:40;11.75;;;6.50;;
8755;SDS011;4414;42.670;23.228;2024-03-08T08:30:07;9.18;;;4.63;;
8755;SDS011;4414;42.670;23.228;2024-03-08T08:32:34;7.82;;;4.82;;
8755;SDS011;4414;42.670;23.228;2024-03-08T08:35:03;8.38;;;3.78;;
8755;SDS011;4414;42.670;23.228;2024-03-08T08:37:30;7.97;;;4.65;;
8755;SDS011;4414;42.670;23.228;2024-03-08T08:39:56;10.70;;;4.93;;
8755;SDS011;4414;42.670;23.228;2024-03-08T08:42:22;11.70;;;6.00;;
8755;SDS011;4414;42.670;23.228;2024-03-08T08:44:48;9.43;;;5.13;;
8755;SDS011;4414;42.670;23.228;2024-03-08T08:47:15;8.73;;;5.45;;
8755;SDS011;4414;42.670;23.228;2024-03-08T08:49:43;8.77;;;5.30;;
8755;SDS011;4414;42.670;23.228;2024-03-08T08:52:11;10.80;;;6.10;;
8755;SDS011;4414;42.670;23.228;2024-03-08T08:54:36;6.47;;;4.32;;
8755;SDS011;4414;42.670;23.228;2024-03-08T08:57:02;8.15;;;4.63;;
8755;SDS011;4414;42.670;23.228;2024-03-08T08:59:32;8.95;;;5.35;;
8755;SDS011;4414;42.670;23.228;2024-03-08T09:02:01;7.88;;;3.80;;
8755;SDS011;4414;42.670;23.228;2024-03-08T09:04:26;8.52;;;4.53;;
8755;SDS011;4414;42.670;23.228;2024-03-08T09:06:53;6.80;;;3.90;;
8755;SDS011;4414;42.670;23.228;2024-03-08T09:09:18;10.63;;;4.63;;
8755;SDS011;4414;42.670;23.228;2024-03-08T09:11:44;7.80;;;4.07;;
8755;SDS011;4414;42.670;23.228;2024-03-08T09:14:11;6.07;;;3.88;;
8755;SDS011;4414;42.670;23.228;2024-03-08T09:16:37;9.65;;;5.03;;
8755;SDS011;4414;42.670;23.228;2024-03-08T09:19:02;9.00;;;5.07;;
8755;SDS011;4414;42.670;23.228;2024-03-08T09:21:28;9.48;;;4.57;;
8755;SDS011;4414;42.670;23.228;2024-03-08T09:23:53;7.63;;;4.53;;
8755;SDS011;4414;42.670;23.228;2024-03-08T09:26:19;8.63;;;4.95;;
8755;SDS011;4414;42.670;23.228;2024-03-08T09:28:47;10.15;;;4.20;;
8755;SDS011;4414;42.670;23.228;2024-03-08T09:31:12;7.03;;;3.97;;
8755;SDS011;4414;42.670;23.228;2024-03-08T09:33:38;4.47;;;2.80;;
8755;SDS011;4414;42.670;23.228;2024-03-08T09:36:04;6.05;;;3.03;;
8755;SDS011;4414;42.670;23.228;2024-03-08T09:38:32;5.10;;;2.80;;
8755;SDS011;4414;42.670;23.228;2024-03-08T09:40:59;4.75;;;2.13;;
8755;SDS011;4414;42.670;23.228;2024-03-08T09:43:26;6.30;;;3.33;;
8755;SDS011;4414;42.670;23.228;2024-03-08T09:45:53;5.18;;;2.95;;
8755;SDS011;4414;42.670;23.228;2024-03-08T09:48:20;4.13;;;2.13;;
8755;SDS011;4414;42.670;23.228;2024-03-08T09:50:47;3.67;;;2.42;;
8755;SDS011;4414;42.670;23.228;2024-03-08T09:53:14;4.10;;;2.03;;
8755;SDS011;4414;42.670;23.228;2024-03-08T09:55:40;2.92;;;1.95;;
8755;SDS011;4414;42.670;23.228;2024-03-08T09:58:11;3.10;;;2.00;;
8755;SDS011;4414;42.670;23.228;2024-03-08T10:00:52;3.85;;;2.05;;
8755;SDS011;4414;42.670;23.228;2024-03-08T10:03:19;4.70;;;2.28;;
8755;SDS011;4414;42.670;23.228;2024-03-08T10:05:45;7.78;;;1.88;;
8755;SDS011;4414;42.670;23.228;2024-03-08T10:08:10;4.10;;;1.88;;
8755;SDS011;4414;42.670;23.228;2024-03-08T10:10:36;3.75;;;1.90;;
8755;SDS011;4414;42.670;23.228;2024-03-08T10:13:05;2.78;;;1.55;;
8755;SDS011;4414;42.670;23.228;2024-03-08T10:15:34;4.03;;;2.60;;
8755;SDS011;4414;42.670;23.228;2024-03-08T10:18:00;2.80;;;1.98;;
8755;SDS011;4414;42.670;23.228;2024-03-08T10:20:27;4.55;;;2.47;;
8755;SDS011;4414;42.670;23.228;2024-03-08T10:22:58;5.40;;;2.25;;
8755;SDS011;4414;42.670;23.228;2024-03-08T10:25:24;3.95;;;2.53;;
8755;SDS011;4414;42.670;23.228;2024-03-08T10:27:50;7.20;;;2.83;;
8755;SDS011;4414;42.670;23.228;2024-03-08T10:30:16;3.63;;;2.35;;
8755;SDS011;4414;42.670;23.228;2024-03-08T10:32:46;4.65;;;2.50;;
8755;SDS011;4414;42.670;23.228;2024-03-08T10:35:12;3.47;;;2.47;;
8755;SDS011;4414;42.670;23.228;2024-03-08T10:37:45;3.60;;;1.95;;
8755;SDS011;4414;42.670;23.228;2024-03-08T10:40:18;6.15;;;2.35;;
8755;SDS011;4414;42.670;23.228;2024-03-08T10:43:06;3.97;;;1.92;;
8755;SDS011;4414;42.670;23.228;2024-03-08T10:45:37;6.15;;;2.28;;
8755;SDS011;4414;42.670;23.228;2024-03-08T10:50:53;2.70;;;2.08;;
8755;SDS011;4414;42.670;23.228;2024-03-08T10:53:18;5.63;;;2.90;;
8755;SDS011;4414;42.670;23.228;2024-03-08T10:55:46;3.55;;;1.63;;
8755;SDS011;4414;42.670;23.228;2024-03-08T10:58:12;4.53;;;2.22;;
8755;SDS011;4414;42.670;23.228;2024-03-08T11:00:38;3.22;;;1.98;;
8755;SDS011;4414;42.670;23.228;2024-03-08T11:03:04;4.05;;;2.13;;
8755;SDS011;4414;42.670;23.228;2024-03-08T11:08:09;2.55;;;2.08;;
8755;SDS011;4414;42.670;23.228;2024-03-08T11:10:48;4.53;;;1.75;;
8755;SDS011;4414;42.670;23.228;2024-03-08T11:13:32;3.10;;;1.95;;
8755;SDS011;4414;42.670;23.228;2024-03-08T11:16:12;3.08;;;2.25;;
8755;SDS011;4414;42.670;23.228;2024-03-08T11:19:01;3.80;;;1.73;;
8755;SDS011;4414;42.670;23.228;2024-03-08T11:21:33;5.60;;;1.73;;
8755;SDS011;4414;42.670;23.228;2024-03-08T11:24:02;2.95;;;1.60;;
8755;SDS011;4414;42.670;23.228;2024-03-08T11:26:33;9.63;;;3.88;;
8755;SDS011;4414;42.670;23.228;2024-03-08T11:32:08;3.38;;;2.00;;
8755;SDS011;4414;42.670;23.228;2024-03-08T11:34:35;8.05;;;2.85;;
8755;SDS011;4414;42.670;23.228;2024-03-08T11:37:05;2.90;;;1.80;;
8755;SDS011;4414;42.670;23.228;2024-03-08T11:39:38;3.28;;;1.88;;
8755;SDS011;4414;42.670;23.228;2024-03-08T11:42:14;4.53;;;2.03;;
8755;SDS011;4414;42.670;23.228;2024-03-08T11:44:42;3.00;;;1.60;;
8755;SDS011;4414;42.670;23.228;2024-03-08T11:47:09;2.60;;;1.80;;
8755;SDS011;4414;42.670;23.228;2024-03-08T11:49:36;1.98;;;1.55;;
8755;SDS011;4414;42.670;23.228;2024-03-08T11:52:01;3.75;;;1.65;;
8755;SDS011;4414;42.670;23.228;2024-03-08T11:54:28;2.97;;;1.83;;
8755;SDS011;4414;42.670;23.228;2024-03-08T11:56:55;2.40;;;1.30;;
8755;SDS011;4414;42.670;23.228;2024-03-08T11:59:26;3.00;;;1.88;;
8755;SDS011;4414;42.670;23.228;2024-03-08T12:02:05;4.80;;;2.75;;
8755;SDS011;4414;42.670;23.228;2024-03-08T12:04:31;3.38;;;2.00;;
8755;SDS011;4414;42.670;23.228;2024-03-08T12:07:01;4.22;;;2.50;;
8755;SDS011;4414;42.670;23.228;2024-03-08T12:09:27;2.53;;;1.63;;
8755;SDS011;4414;42.670;23.228;2024-03-08T12:11:54;2.33;;;2.00;;
8755;SDS011;4414;42.670;23.228;2024-03-08T12:14:19;3.75;;;1.52;;
8755;SDS011;4414;42.670;23.228;2024-03-08T12:16:46;2.25;;;1.52;;
8755;SDS011;4414;42.670;23.228;2024-03-08T12:19:13;1.45;;;1.30;;
8755;SDS011;4414;42.670;23.228;2024-03-08T12:21:39;2.97;;;2.00;;
8755;SDS011;4414;42.670;23.228;2024-03-08T12:24:13;1.70;;;1.23;;
8755;SDS011;4414;42.670;23.228;2024-03-08T12:26:41;2.75;;;1.30;;
8755;SDS011;4414;42.670;23.228;2024-03-08T12:31:57;3.00;;;1.65;;
8755;SDS011;4414;42.670;23.228;2024-03-08T12:34:25;1.88;;;1.38;;
8755;SDS011;4414;42.670;23.228;2024-03-08T12:36:53;2.53;;;1.70;;
8755;SDS011;4414;42.670;23.228;2024-03-08T12:39:20;2.33;;;1.48;;
8755;SDS011;4414;42.670;23.228;2024-03-08T12:41:48;2.20;;;1.50;;
8755;SDS011;4414;42.670;23.228;2024-03-08T12:44:17;4.50;;;2.00;;
8755;SDS011;4414;42.670;23.228;2024-03-08T12:46:44;3.15;;;2.08;;
8755;SDS011;4414;42.670;23.228;2024-03-08T12:49:10;1.95;;;1.30;;
8755;SDS011;4414;42.670;23.228;2024-03-08T12:51:37;2.17;;;1.50;;
8755;SDS011;4414;42.670;23.228;2024-03-08T12:54:03;2.50;;;1.70;;
8755;SDS011;4414;42.670;23.228;2024-03-08T12:56:32;1.55;;;1.00;;
8755;SDS011;4414;42.670;23.228;2024-03-08T12:58:59;2.80;;;1.73;;
8755;SDS011;4414;42.670;23.228;2024-03-08T13:01:25;3.28;;;1.63;;
8755;SDS011;4414;42.670;23.228;2024-03-08T13:03:52;4.20;;;1.95;;
8755;SDS011;4414;42.670;23.228;2024-03-08T13:06:18;2.97;;;1.27;;
8755;SDS011;4414;42.670;23.228;2024-03-08T13:08:46;16.80;;;4.95;;
8755;SDS011;4414;42.670;23.228;2024-03-08T13:11:13;4.50;;;2.47;;
8755;SDS011;4414;42.670;23.228;2024-03-08T13:13:42;5.13;;;1.95;;
8755;SDS011;4414;42.670;23.228;2024-03-08T13:16:08;2.45;;;1.52;;
8755;SDS011;4414;42.670;23.228;2024-03-08T13:18:34;3.20;;;1.90;;
8755;SDS011;4414;42.670;23.228;2024-03-08T13:20:59;3.45;;;1.92;;
8755;SDS011;4414;42.670;23.228;2024-03-08T13:23:30;3.35;;;2.05;;
8755;SDS011;4414;42.670;23.228;2024-03-08T13:25:55;4.03;;;1.83;;
8755;SDS011;4414;42.670;23.228;2024-03-08T13:28:24;2.92;;;1.80;;
8755;SDS011;4414;42.670;23.228;2024-03-08T13:30:54;2.60;;;1.75;;
8755;SDS011;4414;42.670;23.228;2024-03-08T13:33:23;3.30;;;1.83;;
8755;SDS011;4414;42.670;23.228;2024-03-08T13:35:48;2.28;;;1.10;;
8755;SDS011;4414;42.670;23.228;2024-03-08T13:38:16;2.97;;;1.30;;
8755;SDS011;4414;42.670;23.228;2024-03-08T13:40:45;3.53;;;1.60;;
8755;SDS011;4414;42.670;23.228;2024-03-08T13:43:14;3.35;;;1.65;;
8755;SDS011;4414;42.670;23.228;2024-03-08T13:45:42;3.72;;;2.03;;
8755;SDS011;4414;42.670;23.228;2024-03-08T13:48:09;2.75;;;1.45;;
8755;SDS011;4414;42.670;23.228;2024-03-08T13:50:37;2.90;;;1.75;;
8755;SDS011;4414;42.670;23.228;2024-03-08T13:53:03;3.00;;;1.55;;
8755;SDS011;4414;42.670;23.228;2024-03-08T13:55:29;3.53;;;1.73;;
8755;SDS011;4414;42.670;23.228;2024-03-08T13:57:55;2.78;;;1.40;;
8755;SDS011;4414;42.670;23.228;2024-03-08T14:00:22;5.95;;;3.30;;
8755;SDS011;4414;42.670;23.228;2024-03-08T14:02:49;2.67;;;1.70;;
8755;SDS011;4414;42.670;23.228;2024-03-08T14:05:15;3.38;;;1.75;;
8755;SDS011;4414;42.670;23.228;2024-03-08T14:07:42;3.60;;;1.70;;
8755;SDS011;4414;42.670;23.228;2024-03-08T14:10:11;2.85;;;1.40;;
8755;SDS011;4414;42.670;23.228;2024-03-08T14:12:37;2.72;;;1.55;;
8755;SDS011;4414;42.670;23.228;2024-03-08T14:15:09;1.70;;;1.20;;
8755;SDS011;4414;42.670;23.228;2024-03-08T14:17:36;3.70;;;2.40;;
8755;SDS011;4414;42.670;23.228;2024-03-08T14:20:02;2.47;;;1.30;;
8755;SDS011;4414;42.670;23.228;2024-03-08T14:22:28;1.58;;;1.05;;
8755;SDS011;4414;42.670;23.228;2024-03-08T14:24:56;2.38;;;1.27;;
8755;SDS011;4414;42.670;23.228;2024-03-08T14:27:22;11.07;;;5.03;;
8755;SDS011;4414;42.670;23.228;2024-03-08T14:33:17;4.82;;;2.45;;
8755;SDS011;4414;42.670;23.228;2024-03-08T14:36:28;6.60;;;2.15;;
8755;SDS011;4414;42.670;23.228;2024-03-08T14:57:04;6.05;;;2.13;;
8755;SDS011;4414;42.670;23.228;2024-03-08T14:59:57;5.13;;;3.03;;
8755;SDS011;4414;42.670;23.228;2024-03-08T15:09:57;6.72;;;3.20;;
8755;SDS011;4414;42.670;23.228;2024-03-08T15:16:43;3.28;;;2.30;;
8755;SDS011;4414;42.670;23.228;2024-03-08T15:23:11;4.78;;;3.00;;
8755;SDS011;4414;42.670;23.228;2024-03-08T15:36:34;6.35;;;3.30;;
8755;SDS011;4414;42.670;23.228;2024-03-08T15:43:09;4.30;;;2.42;;
8755;SDS011;4414;42.670;23.228;2024-03-08T15:45:35;6.60;;;3.65;;
8755;SDS011;4414;42.670;23.228;2024-03-08T15:48:02;5.05;;;2.60;;
8755;SDS011;4414;42.670;23.228;2024-03-08T15:50:30;6.18;;;3.13;;
8755;SDS011;4414;42.670;23.228;2024-03-08T15:52:56;6.90;;;3.28;;
8755;SDS011;4414;42.670;23.228;2024-03-08T15:55:22;5.03;;;2.90;;
8755;SDS011;4414;42.670;23.228;2024-03-08T15:57:52;3.47;;;2.03;;
8755;SDS011;4414;42.670;23.228;2024-03-08T16:00:21;4.53;;;3.03;;
8755;SDS011;4414;42.670;23.228;2024-03-08T16:03:07;6.10;;;3.33;;
8755;SDS011;4414;42.670;23.228;2024-03-08T16:05:36;6.82;;;3.35;;